createdAt,value
2023-04-17T00:00:50.367Z,9.30
2023-04-17T00:05:34.563Z,9.30
2023-04-17T00:10:20.368Z,9.30
2023-04-17T00:15:05.645Z,9.30
2023-04-17T00:19:50.278Z,9.30
2023-04-17T00:24:34.427Z,9.30
2023-04-17T00:29:19.878Z,9.20
2023-04-17T00:34:04.002Z,9.20
2023-04-17T00:38:48.682Z,9.20
2023-04-17T00:43:32.875Z,9.20
2023-04-17T00:48:21.162Z,9.10
2023-04-17T00:53:05.942Z,9.10
2023-04-17T00:57:50.556Z,9.10
2023-04-17T01:02:35.214Z,9.10
2023-04-17T01:07:20.783Z,9.10
2023-04-17T01:12:21.632Z,9.10
2023-04-17T01:17:05.902Z,9.10
2023-04-17T01:21:50.099Z,9.10
2023-04-17T01:26:36.593Z,9.10
2023-04-17T01:31:21.394Z,9.10
2023-04-17T01:36:06.935Z,9.10
2023-04-17T01:40:51.540Z,9.00
2023-04-17T01:45:37.060Z,9.00
2023-04-17T01:50:21.344Z,8.90
2023-04-17T01:55:06.199Z,8.90
2023-04-17T01:59:50.273Z,8.80
2023-04-17T02:04:35.907Z,8.80
2023-04-17T02:09:20.158Z,8.70
2023-04-17T02:14:04.177Z,8.70
2023-04-17T02:18:48.534Z,8.70
2023-04-17T02:23:34.080Z,8.70
2023-04-17T02:28:18.385Z,8.70
2023-04-17T02:33:03.091Z,8.60
2023-04-17T02:37:48.384Z,8.60
2023-04-17T02:42:34.414Z,8.60
2023-04-17T02:47:22.791Z,8.60
2023-04-17T02:52:07.118Z,8.60
2023-04-17T02:56:51.343Z,8.60
2023-04-17T03:01:38.402Z,8.60
2023-04-17T03:06:24.145Z,8.60
2023-04-17T03:11:08.337Z,8.60
2023-04-17T03:15:52.589Z,8.60
2023-04-17T03:20:38.246Z,8.60
2023-04-17T03:25:22.511Z,8.60
2023-04-17T03:30:10.976Z,8.50
2023-04-17T03:34:55.362Z,8.50
2023-04-17T03:39:41.112Z,8.50
2023-04-17T03:44:25.190Z,8.40
2023-04-17T03:49:09.600Z,8.40
2023-04-17T03:53:55.762Z,8.40
2023-04-17T03:58:42.690Z,8.30
2023-04-17T04:03:30.016Z,8.30
2023-04-17T04:08:15.810Z,8.20
2023-04-17T04:13:06.973Z,8.20
2023-04-17T04:17:53.418Z,8.20
2023-04-17T04:22:38.011Z,8.20
2023-04-17T04:27:23.788Z,8.20
2023-04-17T04:32:13.684Z,8.20
2023-04-17T04:37:03.842Z,8.20
2023-04-17T04:41:57.649Z,8.20
2023-04-17T04:46:46.568Z,8.20
2023-04-17T04:51:31.911Z,8.20
2023-04-17T04:56:17.855Z,8.20
2023-04-17T05:01:06.874Z,8.20
2023-04-17T05:05:56.041Z,8.20
2023-04-17T05:10:46.051Z,8.20
2023-04-17T05:15:32.915Z,8.20
2023-04-17T05:20:17.720Z,8.20
2023-04-17T05:25:12.299Z,8.20
2023-04-17T05:29:56.720Z,8.20
2023-04-17T05:34:42.456Z,8.20
2023-04-17T05:39:27.688Z,8.20
2023-04-17T05:44:12.171Z,8.30
2023-04-17T05:48:56.866Z,8.30
2023-04-17T05:53:44.721Z,8.30
2023-04-17T05:58:28.949Z,8.30
2023-04-17T06:03:18.364Z,8.30
2023-04-17T06:08:04.509Z,8.30
2023-04-17T06:12:50.105Z,8.30
2023-04-17T06:17:34.367Z,8.30
2023-04-17T06:22:18.703Z,8.40
2023-04-17T06:27:04.844Z,8.30
2023-04-17T06:31:50.296Z,8.40
2023-04-17T06:36:38.790Z,8.40
2023-04-17T06:41:22.949Z,8.40
2023-04-17T06:46:07.361Z,8.40
2023-04-17T06:50:52.967Z,8.30
2023-04-17T06:55:37.246Z,8.30
2023-04-17T07:00:22.871Z,8.40
2023-04-17T07:05:07.990Z,8.40
2023-04-17T07:09:53.615Z,8.40
2023-04-17T07:14:38.391Z,8.50
2023-04-17T07:19:22.578Z,8.50
2023-04-17T07:24:07.401Z,8.60
2023-04-17T07:28:52.901Z,8.70
2023-04-17T07:33:40.061Z,8.80
2023-04-17T07:38:24.691Z,8.90
2023-04-17T07:43:08.759Z,9.00
2023-04-17T07:47:54.364Z,9.20
2023-04-17T07:52:38.976Z,9.30
2023-04-17T07:57:26.420Z,9.50
2023-04-17T08:02:10.789Z,9.70
2023-04-17T08:06:56.401Z,9.80
2023-04-17T08:11:53.777Z,9.90
2023-04-17T08:16:41.659Z,10.00
2023-04-17T08:21:26.809Z,10.20
2023-04-17T08:26:12.629Z,10.30
2023-04-17T08:30:57.200Z,10.40
2023-04-17T08:35:41.367Z,10.60
2023-04-17T08:40:26.354Z,10.70
2023-04-17T08:45:13.697Z,10.70
2023-04-17T08:49:58.799Z,10.80
2023-04-17T08:54:42.958Z,11.00
2023-04-17T08:59:27.145Z,11.20
2023-04-17T09:04:16.452Z,11.40
2023-04-17T09:09:02.699Z,11.50
2023-04-17T09:13:46.884Z,11.40
2023-04-17T09:18:32.485Z,11.50
2023-04-17T09:23:18.917Z,11.60
2023-04-17T09:28:12.755Z,11.50
2023-04-17T09:33:07.033Z,11.30
2023-04-17T09:37:52.699Z,11.30
2023-04-17T09:42:55.898Z,11.40
2023-04-17T09:47:41.577Z,11.50
2023-04-17T09:52:26.083Z,11.50
2023-04-17T09:57:11.904Z,11.50
2023-04-17T10:01:57.640Z,11.60
2023-04-17T10:06:42.059Z,11.50
2023-04-17T10:11:28.627Z,11.40
2023-04-17T10:16:12.796Z,11.20
2023-04-17T10:20:58.528Z,11.20
2023-04-17T10:25:42.778Z,11.10
2023-04-17T10:30:51.338Z,11.10
2023-04-17T10:35:36.836Z,11.20
2023-04-17T10:40:23.896Z,11.40
2023-04-17T10:45:21.592Z,11.90
2023-04-17T10:50:10.075Z,12.50
2023-04-17T10:55:08.039Z,13.00
2023-04-17T11:00:13.198Z,13.50
2023-04-17T11:05:08.368Z,14.10
2023-04-17T11:09:53.405Z,14.10
2023-04-17T11:14:42.609Z,13.60
2023-04-17T11:19:28.137Z,13.00
2023-04-17T11:24:12.494Z,12.50
2023-04-17T11:28:56.668Z,12.30
2023-04-17T11:33:41.268Z,12.20
2023-04-17T11:38:26.737Z,12.20
2023-04-17T11:43:11.635Z,12.20
2023-04-17T11:47:55.826Z,12.10
2023-04-17T11:52:40.051Z,12.20
2023-04-17T11:57:25.722Z,12.20
2023-04-17T12:02:11.399Z,12.30
2023-04-17T12:06:56.953Z,12.40
2023-04-17T12:11:42.286Z,12.50
2023-04-17T12:16:29.411Z,12.60
2023-04-17T12:21:14.344Z,12.90
2023-04-17T12:25:58.727Z,13.10
2023-04-17T12:30:43.077Z,13.20
2023-04-17T12:35:29.029Z,13.20
2023-04-17T12:40:13.612Z,13.10
2023-04-17T12:44:57.908Z,13.00
2023-04-17T12:49:42.308Z,13.10
2023-04-17T12:54:27.943Z,13.20
2023-04-17T12:59:12.232Z,13.20
2023-04-17T13:03:56.535Z,13.20
2023-04-17T13:08:43.131Z,13.20
2023-04-17T13:13:28.645Z,13.00
2023-04-17T13:18:14.513Z,12.80
2023-04-17T13:22:59.156Z,12.80
2023-04-17T13:27:45.557Z,12.80
2023-04-17T13:32:31.341Z,12.90
2023-04-17T13:37:15.776Z,12.90
2023-04-17T13:42:00.569Z,12.80
2023-04-17T13:46:44.755Z,12.60
2023-04-17T13:51:31.747Z,12.50
2023-04-17T13:56:16.116Z,12.60
2023-04-17T14:01:00.315Z,12.60
2023-04-17T14:05:44.809Z,12.60
2023-04-17T14:10:30.568Z,12.60
2023-04-17T14:15:14.832Z,12.60
2023-04-17T14:19:58.992Z,12.50
2023-04-17T14:24:46.150Z,12.40
2023-04-17T14:29:31.733Z,12.30
2023-04-17T14:34:15.773Z,12.20
2023-04-17T14:39:00.371Z,12.10
2023-04-17T14:43:40.554Z,12.10
2023-04-17T14:48:26.523Z,12.10
2023-04-17T14:53:11.209Z,12.10
2023-04-17T14:57:55.847Z,12.10
2023-04-17T15:02:40.088Z,12.20
2023-04-17T15:07:28.837Z,12.20
2023-04-17T15:12:13.120Z,12.20
2023-04-17T15:16:58.528Z,12.20
2023-04-17T15:21:42.817Z,12.20
2023-04-17T15:26:30.611Z,12.10
2023-04-17T15:31:18.033Z,11.90
2023-04-17T15:36:03.696Z,11.70
2023-04-17T15:40:49.812Z,11.70
2023-04-17T15:45:38.307Z,11.80
2023-04-17T15:50:26.720Z,11.80
2023-04-17T15:54:55.908Z,11.80
2023-04-17T15:59:22.960Z,11.70
2023-04-17T16:03:49.116Z,11.60
2023-04-17T16:08:16.237Z,11.50
2023-04-17T16:12:43.196Z,11.50
2023-04-17T16:17:11.230Z,11.50
2023-04-17T16:21:36.976Z,11.50
2023-04-17T16:26:04.668Z,11.50
2023-04-17T16:30:30.642Z,11.40
2023-04-17T16:34:58.000Z,11.30
2023-04-17T16:39:23.532Z,11.10
2023-04-17T16:43:47.487Z,11.00
2023-04-17T16:48:12.754Z,10.90
2023-04-17T16:52:42.796Z,10.80
2023-04-17T16:57:09.357Z,10.70
2023-04-17T17:01:33.682Z,10.50
2023-04-17T17:05:57.663Z,10.40
2023-04-17T17:10:21.577Z,10.30
2023-04-17T17:14:49.771Z,10.30
2023-04-17T17:19:16.801Z,10.10
2023-04-17T17:23:49.268Z,10.00
2023-04-17T17:28:15.596Z,10.00
2023-04-17T17:32:41.917Z,9.90
2023-04-17T17:37:06.350Z,9.80
2023-04-17T17:41:30.420Z,9.70
2023-04-17T17:45:57.488Z,9.70
2023-04-17T17:50:25.717Z,9.60
2023-04-17T17:54:49.581Z,9.50
2023-04-17T17:59:17.716Z,9.40
2023-04-17T18:03:41.715Z,9.50
2023-04-17T18:08:12.291Z,9.40
2023-04-17T18:12:36.619Z,9.40
2023-04-17T18:17:06.187Z,9.40
2023-04-17T18:21:32.542Z,9.40
2023-04-17T18:26:10.214Z,9.30
2023-04-17T18:30:34.508Z,9.20
2023-04-17T18:35:06.585Z,9.20
2023-04-17T18:39:31.887Z,9.10
2023-04-17T18:43:58.119Z,9.10
2023-04-17T18:48:22.346Z,9.00
2023-04-17T18:52:49.575Z,8.90
2023-04-17T18:57:15.194Z,8.90
2023-04-17T19:01:42.717Z,8.80
2023-04-17T19:06:10.538Z,8.80
2023-04-17T19:10:34.716Z,8.70
2023-04-17T19:14:59.117Z,8.70
2023-04-17T19:19:25.304Z,8.70
2023-04-17T19:23:49.790Z,8.70
2023-04-17T19:28:17.658Z,8.70
2023-04-17T19:32:42.605Z,8.60
2023-04-17T19:37:09.133Z,8.50
2023-04-17T19:41:35.378Z,8.40
2023-04-17T19:45:52.832Z,8.20
2023-04-17T19:50:14.264Z,8.00
2023-04-17T19:54:47.019Z,7.90
2023-04-17T19:59:05.853Z,7.70
2023-04-17T20:03:25.731Z,7.70
2023-04-17T20:07:50.199Z,7.60
2023-04-17T20:12:16.396Z,7.60
2023-04-17T20:16:40.871Z,7.60
2023-04-17T20:21:06.542Z,7.50
2023-04-17T20:25:30.731Z,7.60
2023-04-17T20:29:57.403Z,7.60
2023-04-17T20:34:24.619Z,7.70
2023-04-17T20:38:48.469Z,7.70
2023-04-17T20:43:13.152Z,7.70
2023-04-17T20:47:46.176Z,7.70
2023-04-17T20:52:20.568Z,7.80
2023-04-17T20:56:48.467Z,7.80
2023-04-17T21:01:13.328Z,7.80
2023-04-17T21:05:41.181Z,7.80
2023-04-17T21:10:05.863Z,7.70
2023-04-17T21:14:35.260Z,7.70
2023-04-17T21:18:59.665Z,7.80
2023-04-17T21:23:25.160Z,7.70
2023-04-17T21:27:53.647Z,7.70
2023-04-17T21:32:17.647Z,7.70
2023-04-17T21:36:41.694Z,7.70
2023-04-17T21:41:14.088Z,7.70
2023-04-17T21:45:38.670Z,7.70
2023-04-17T21:50:02.836Z,7.80
2023-04-17T21:54:29.136Z,7.70
2023-04-17T21:58:54.332Z,7.80
2023-04-17T22:03:18.570Z,7.80
2023-04-17T22:07:54.258Z,7.80
2023-04-17T22:12:31.698Z,7.80
2023-04-17T22:16:57.280Z,7.80
2023-04-17T22:21:21.603Z,7.80
2023-04-17T22:25:50.339Z,7.80
2023-04-17T22:30:16.752Z,7.90
2023-04-17T22:34:42.670Z,7.90
2023-04-17T22:39:07.015Z,7.80
2023-04-17T22:43:36.427Z,7.80
2023-04-17T22:48:00.710Z,7.70
2023-04-17T22:52:30.069Z,7.70
2023-04-17T22:56:59.712Z,7.70
2023-04-17T23:01:24.166Z,7.60
2023-04-17T23:05:54.295Z,7.60
2023-04-17T23:10:19.913Z,7.60
2023-04-17T23:14:46.032Z,7.60
2023-04-17T23:19:13.506Z,7.60
2023-04-17T23:23:37.338Z,7.60
2023-04-17T23:28:05.470Z,7.70
2023-04-17T23:32:29.343Z,7.60
2023-04-17T23:36:53.363Z,7.60
2023-04-17T23:41:20.379Z,7.60
2023-04-17T23:45:46.190Z,7.60
2023-04-17T23:50:17.013Z,7.60
2023-04-17T23:54:44.047Z,7.60
2023-04-17T23:59:07.777Z,7.60
